createdAt,value
2018-05-11T00:00:30.038Z,11.00
2018-05-11T00:02:58.313Z,10.80
2018-05-11T00:05:26.570Z,10.90
2018-05-11T00:07:54.185Z,10.80
2018-05-11T00:10:21.671Z,10.80
2018-05-11T00:12:49.157Z,10.80
2018-05-11T00:15:16.669Z,10.80
2018-05-11T00:17:44.434Z,10.80
2018-05-11T00:20:11.950Z,10.80
2018-05-11T00:22:40.205Z,10.70
2018-05-11T00:25:07.717Z,10.70
2018-05-11T00:27:35.206Z,10.80
2018-05-11T00:30:02.714Z,10.70
2018-05-11T00:32:30.213Z,10.60
2018-05-11T00:34:57.718Z,10.60
2018-05-11T00:37:25.991Z,10.60
2018-05-11T00:39:53.513Z,10.50
2018-05-11T00:42:21.788Z,10.60
2018-05-11T00:44:49.288Z,10.50
2018-05-11T00:47:16.870Z,10.60
2018-05-11T00:49:44.322Z,10.50
2018-05-11T00:52:12.594Z,10.40
2018-05-11T00:54:40.853Z,10.50
2018-05-11T00:57:08.470Z,10.30
2018-05-11T00:59:35.962Z,10.50
2018-05-11T01:02:03.452Z,10.60
2018-05-11T01:04:32.020Z,10.50
2018-05-11T01:06:59.525Z,10.40
2018-05-11T01:09:27.057Z,10.70
2018-05-11T01:11:55.309Z,10.70
2018-05-11T01:14:22.895Z,10.60
2018-05-11T01:16:51.186Z,10.80
2018-05-11T01:19:18.772Z,10.70
2018-05-11T01:21:46.992Z,10.70
2018-05-11T01:24:14.486Z,10.60
2018-05-11T01:26:41.993Z,10.70
2018-05-11T01:29:09.486Z,10.70
2018-05-11T01:31:37.762Z,10.90
2018-05-11T01:34:06.025Z,10.90
2018-05-11T01:36:33.534Z,10.80
2018-05-11T01:39:01.037Z,11.00
2018-05-11T01:41:28.533Z,11.00
2018-05-11T01:43:56.054Z,10.90
2018-05-11T01:46:23.537Z,10.90
2018-05-11T01:48:51.822Z,10.80
2018-05-11T01:51:20.070Z,10.90
2018-05-11T01:53:47.578Z,10.80
2018-05-11T01:56:15.083Z,10.90
2018-05-11T01:58:42.593Z,10.80
2018-05-11T02:01:10.090Z,10.80
2018-05-11T02:03:37.590Z,10.80
2018-05-11T02:06:05.875Z,10.90
2018-05-11T02:08:34.129Z,10.90
2018-05-11T02:11:01.638Z,10.80
2018-05-11T02:13:29.416Z,10.90
2018-05-11T02:15:56.926Z,10.90
2018-05-11T02:18:25.185Z,10.90
2018-05-11T02:20:52.733Z,10.80
2018-05-11T02:23:20.228Z,10.80
2018-05-11T02:25:48.553Z,10.80
2018-05-11T02:28:16.041Z,10.70
2018-05-11T02:30:43.526Z,10.90
2018-05-11T02:33:11.807Z,11.00
2018-05-11T02:35:40.062Z,10.90
2018-05-11T02:38:07.572Z,10.80
2018-05-11T02:40:35.065Z,10.90
2018-05-11T02:43:02.799Z,10.70
2018-05-11T02:45:30.304Z,10.70
2018-05-11T02:47:58.563Z,10.60
2018-05-11T02:50:26.079Z,10.50
2018-05-11T02:52:53.573Z,10.50
2018-05-11T02:55:21.079Z,10.40
2018-05-11T02:57:48.589Z,10.40
2018-05-11T03:00:16.099Z,10.30
2018-05-11T03:02:44.352Z,10.10
2018-05-11T03:05:11.875Z,10.00
2018-05-11T03:07:39.362Z,10.10
2018-05-11T03:10:06.858Z,10.10
2018-05-11T03:12:34.370Z,10.00
2018-05-11T03:15:01.863Z,10.00
2018-05-11T03:17:29.387Z,9.90
2018-05-11T03:19:56.869Z,9.80
2018-05-11T03:22:24.409Z,9.80
2018-05-11T03:24:51.898Z,9.80
2018-05-11T03:27:19.406Z,9.80
2018-05-11T03:29:46.946Z,9.80
2018-05-11T03:32:14.433Z,9.80
2018-05-11T03:34:41.937Z,9.80
2018-05-11T03:37:10.564Z,9.70
2018-05-11T03:39:38.074Z,9.60
2018-05-11T03:42:06.324Z,9.80
2018-05-11T03:44:33.855Z,9.70
2018-05-11T03:47:01.348Z,9.70
2018-05-11T03:49:28.869Z,9.70
2018-05-11T03:51:56.358Z,9.70
2018-05-11T03:54:23.861Z,9.80
2018-05-11T03:56:52.112Z,9.70
2018-05-11T03:59:19.600Z,9.60
2018-05-11T04:01:59.715Z,9.70
2018-05-11T04:04:39.338Z,9.60
2018-05-11T04:07:19.630Z,9.80
2018-05-11T04:09:47.113Z,9.80
2018-05-11T04:12:15.389Z,9.90
2018-05-11T04:14:43.637Z,10.00
2018-05-11T04:17:11.147Z,9.90
2018-05-11T04:19:38.632Z,10.00
2018-05-11T04:22:06.146Z,10.10
2018-05-11T04:24:34.406Z,10.20
2018-05-11T04:27:02.656Z,10.20
2018-05-11T04:29:30.157Z,10.10
2018-05-11T04:31:58.452Z,10.70
2018-05-11T04:34:25.963Z,10.60
2018-05-11T04:36:53.454Z,11.00
2018-05-11T04:39:21.733Z,12.20
2018-05-11T04:41:49.986Z,12.90
2018-05-11T04:44:17.476Z,12.80
2018-05-11T04:46:44.981Z,13.20
2018-05-11T04:49:12.462Z,13.70
2018-05-11T04:51:39.968Z,14.10
2018-05-11T04:54:07.454Z,14.20
2018-05-11T04:56:34.962Z,14.10
2018-05-11T04:59:02.444Z,14.00
2018-05-11T05:01:29.947Z,13.80
2018-05-11T05:03:57.449Z,13.90
2018-05-11T05:06:24.939Z,14.10
2018-05-11T05:08:52.441Z,14.30
2018-05-11T05:11:19.925Z,14.40
2018-05-11T05:13:47.445Z,14.50
2018-05-11T05:16:14.944Z,14.60
2018-05-11T05:18:42.434Z,14.70
2018-05-11T05:21:09.938Z,14.90
2018-05-11T05:23:37.422Z,14.90
2018-05-11T05:26:04.924Z,14.90
2018-05-11T05:28:32.422Z,14.80
2018-05-11T05:31:00.693Z,15.80
2018-05-11T05:33:28.179Z,15.70
2018-05-11T05:35:55.662Z,15.80
2018-05-11T05:38:23.181Z,15.90
2018-05-11T05:40:51.527Z,16.00
2018-05-11T05:43:19.033Z,15.90
2018-05-11T05:45:46.522Z,16.00
2018-05-11T05:48:14.253Z,16.00
2018-05-11T05:50:42.502Z,16.40
2018-05-11T05:53:10.003Z,16.30
2018-05-11T05:55:37.501Z,16.60
2018-05-11T05:58:04.981Z,16.90
2018-05-11T06:00:32.525Z,17.00
2018-05-11T06:03:00.007Z,17.10
2018-05-11T06:05:28.281Z,17.30
2018-05-11T06:07:55.761Z,17.20
2018-05-11T06:10:24.029Z,18.30
2018-05-11T06:12:52.285Z,18.70
2018-05-11T06:15:19.795Z,18.60
2018-05-11T06:17:47.292Z,18.70
2018-05-11T06:20:14.786Z,18.70
2018-05-11T06:22:43.071Z,17.70
2018-05-11T06:25:10.557Z,17.60
2018-05-11T06:27:38.061Z,17.30
2018-05-11T06:30:05.639Z,16.80
2018-05-11T06:32:33.154Z,16.20
2018-05-11T06:35:00.650Z,15.90
2018-05-11T06:37:28.922Z,15.50
2018-05-11T06:39:56.423Z,15.40
2018-05-11T06:42:24.085Z,15.20
2018-05-11T06:44:51.613Z,15.00
2018-05-11T06:47:19.872Z,15.10
2018-05-11T06:49:47.385Z,15.00
2018-05-11T06:52:14.897Z,14.70
2018-05-11T06:54:42.413Z,14.60
2018-05-11T06:57:09.915Z,14.50
2018-05-11T06:59:38.201Z,14.30
2018-05-11T07:02:06.464Z,14.50
2018-05-11T07:04:33.989Z,14.40
2018-05-11T07:07:01.483Z,14.60
2018-05-11T07:09:29.753Z,14.30
2018-05-11T07:11:57.278Z,14.20
2018-05-11T07:14:24.780Z,14.30
2018-05-11T07:16:52.297Z,14.50
2018-05-11T07:19:19.799Z,14.40
2018-05-11T07:21:47.389Z,14.50
2018-05-11T07:24:15.653Z,14.60
2018-05-11T07:26:43.939Z,14.10
2018-05-11T07:29:12.202Z,14.10
2018-05-11T07:31:40.470Z,14.30
2018-05-11T07:34:07.998Z,14.20
2018-05-11T07:36:35.522Z,14.60
2018-05-11T07:39:03.802Z,14.40
2018-05-11T07:41:31.306Z,14.30
2018-05-11T07:43:58.821Z,14.60
2018-05-11T07:46:26.320Z,14.60
2018-05-11T07:48:53.864Z,14.70
2018-05-11T07:51:21.366Z,14.60
2018-05-11T07:53:48.886Z,14.60
2018-05-11T07:56:16.389Z,14.60
2018-05-11T07:58:44.673Z,14.70
2018-05-11T08:01:12.959Z,14.80
2018-05-11T08:03:41.218Z,15.00
2018-05-11T08:06:08.742Z,14.90
2018-05-11T08:08:36.246Z,15.20
2018-05-11T08:11:03.783Z,15.60
2018-05-11T08:13:31.350Z,15.90
2018-05-11T08:15:58.856Z,16.30
2018-05-11T08:18:26.375Z,16.20
2018-05-11T08:20:53.872Z,16.00
2018-05-11T08:23:21.385Z,16.10
2018-05-11T08:25:49.106Z,16.20
2018-05-11T08:28:16.618Z,15.70
2018-05-11T08:30:44.108Z,15.60
2018-05-11T08:33:11.627Z,15.20
2018-05-11T08:35:39.124Z,15.10
2018-05-11T08:38:06.662Z,15.10
2018-05-11T08:40:34.176Z,15.40
2018-05-11T08:43:01.689Z,15.60
2018-05-11T08:45:29.958Z,16.10
2018-05-11T08:47:57.467Z,16.00
2018-05-11T08:50:24.996Z,16.10
2018-05-11T08:52:53.270Z,16.20
2018-05-11T08:55:21.546Z,16.40
2018-05-11T08:57:49.802Z,16.20
2018-05-11T09:00:17.312Z,16.10
2018-05-11T09:02:44.802Z,16.20
2018-05-11T09:05:12.318Z,15.90
2018-05-11T09:07:39.825Z,16.10
2018-05-11T09:10:07.322Z,16.10
2018-05-11T09:12:35.610Z,16.90
2018-05-11T09:15:03.110Z,16.70
2018-05-11T09:17:30.620Z,16.40
2018-05-11T09:19:58.124Z,16.50
2018-05-11T09:22:25.637Z,17.00
2018-05-11T09:24:53.898Z,17.30
2018-05-11T09:27:22.560Z,17.00
2018-05-11T09:29:50.057Z,17.00
2018-05-11T09:32:17.582Z,16.70
2018-05-11T09:34:45.339Z,16.70
2018-05-11T09:37:12.834Z,16.30
2018-05-11T09:39:41.220Z,16.70
2018-05-11T09:42:08.626Z,16.60
2018-05-11T09:44:36.156Z,17.00
2018-05-11T09:47:03.665Z,17.60
2018-05-11T09:49:31.253Z,17.70
2018-05-11T09:51:58.725Z,18.00
2018-05-11T09:54:26.993Z,17.10
2018-05-11T09:56:55.319Z,17.40
2018-05-11T09:59:22.818Z,17.30
2018-05-11T10:01:50.441Z,17.90
2018-05-11T10:04:18.652Z,17.40
2018-05-11T10:06:46.186Z,17.30
2018-05-11T10:09:13.673Z,17.50
2018-05-11T10:11:41.193Z,17.70
2018-05-11T10:14:08.692Z,17.50
2018-05-11T10:16:36.209Z,17.90
2018-05-11T10:19:03.725Z,17.90
2018-05-11T10:21:31.999Z,17.50
2018-05-11T10:24:00.294Z,17.50
2018-05-11T10:26:27.813Z,17.40
2018-05-11T10:28:55.361Z,17.50
2018-05-11T10:31:22.874Z,17.50
2018-05-11T10:33:50.417Z,17.30
2018-05-11T10:36:18.697Z,16.70
2018-05-11T10:38:46.986Z,16.50
2018-05-11T10:41:14.488Z,16.40
2018-05-11T10:43:42.010Z,16.30
2018-05-11T10:46:09.515Z,16.10
2018-05-11T10:48:37.113Z,16.30
2018-05-11T10:51:04.553Z,16.10
2018-05-11T10:53:32.049Z,16.20
2018-05-11T10:55:59.567Z,16.30
2018-05-11T10:58:27.061Z,16.50
2018-05-11T11:00:54.570Z,16.80
2018-05-11T11:03:22.077Z,16.80
2018-05-11T11:05:49.574Z,16.70
2018-05-11T11:08:17.085Z,16.60
2018-05-11T11:10:45.354Z,16.60
2018-05-11T11:13:13.645Z,16.60
2018-05-11T11:15:41.158Z,16.50
2018-05-11T11:18:08.668Z,16.80
2018-05-11T11:20:36.174Z,16.90
2018-05-11T11:23:03.691Z,16.90
2018-05-11T11:25:31.205Z,17.00
2018-05-11T11:27:58.698Z,16.80
2018-05-11T11:30:26.978Z,17.30
2018-05-11T11:32:55.233Z,17.50
2018-05-11T11:35:22.746Z,17.50
2018-05-11T11:37:50.237Z,17.60
2018-05-11T11:40:17.764Z,17.20
2018-05-11T11:42:45.262Z,17.00
2018-05-11T11:45:12.764Z,17.00
2018-05-11T11:47:40.290Z,17.30
2018-05-11T11:50:07.796Z,17.60
2018-05-11T11:52:35.321Z,17.60
2018-05-11T11:55:03.638Z,17.40
2018-05-11T11:57:31.154Z,17.40
2018-05-11T11:59:58.675Z,17.40
2018-05-11T12:02:26.186Z,17.60
2018-05-11T12:04:54.458Z,18.10
2018-05-11T12:07:22.737Z,18.30
2018-05-11T12:09:51.028Z,18.70
2018-05-11T12:12:18.547Z,18.60
2018-05-11T12:14:46.063Z,18.50
2018-05-11T12:17:13.581Z,18.90
2018-05-11T12:19:41.079Z,19.20
2018-05-11T12:22:08.606Z,19.30
2018-05-11T12:24:36.884Z,18.80
2018-05-11T12:27:05.176Z,19.00
2018-05-11T12:29:33.433Z,19.20
2018-05-11T12:32:00.951Z,19.00
2018-05-11T12:34:28.460Z,18.60
2018-05-11T12:36:56.008Z,18.50
2018-05-11T12:39:23.515Z,18.80
2018-05-11T12:41:51.014Z,19.10
2018-05-11T12:44:18.519Z,19.40
2018-05-11T12:46:46.039Z,19.30
2018-05-11T12:49:13.559Z,18.70
2018-05-11T12:51:41.063Z,18.20
2018-05-11T12:54:08.578Z,18.00
2018-05-11T12:56:36.131Z,17.90
2018-05-11T12:59:03.651Z,17.60
2018-05-11T13:01:32.113Z,17.80
2018-05-11T13:03:59.616Z,17.80
2018-05-11T13:06:27.129Z,17.80
2018-05-11T13:08:54.648Z,17.80
2018-05-11T13:11:22.162Z,18.00
2018-05-11T13:13:49.658Z,18.30
2018-05-11T13:16:17.181Z,18.40
2018-05-11T13:18:44.685Z,18.60
2018-05-11T13:21:12.213Z,18.70
2018-05-11T13:23:40.492Z,18.70
2018-05-11T13:26:08.008Z,18.60
2018-05-11T13:28:35.521Z,18.90
2018-05-11T13:31:03.069Z,19.30
2018-05-11T13:33:30.578Z,19.30
2018-05-11T13:35:58.079Z,19.30
2018-05-11T13:38:25.598Z,19.40
2018-05-11T13:40:53.090Z,19.50
2018-05-11T13:43:20.598Z,19.40
2018-05-11T13:45:48.087Z,19.40
2018-05-11T13:48:15.682Z,18.90
2018-05-11T13:50:43.130Z,18.50
2018-05-11T13:53:10.630Z,18.50
2018-05-11T13:55:38.138Z,18.60
2018-05-11T13:58:05.647Z,18.50
2018-05-11T14:00:33.163Z,18.40
2018-05-11T14:03:00.670Z,18.70
2018-05-11T14:05:28.187Z,18.90
2018-05-11T14:07:55.677Z,19.00
2018-05-11T14:10:23.202Z,19.20
2018-05-11T14:12:50.716Z,19.50
2018-05-11T14:15:18.236Z,19.60
2018-05-11T14:17:46.541Z,19.00
2018-05-11T14:20:14.051Z,18.90
2018-05-11T14:22:41.588Z,19.10
2018-05-11T14:25:09.085Z,19.10
2018-05-11T14:27:36.627Z,19.30
2018-05-11T14:30:04.151Z,19.10
2018-05-11T14:32:31.646Z,18.80
2018-05-11T14:34:59.179Z,18.60
2018-05-11T14:37:26.686Z,18.70
2018-05-11T14:39:54.975Z,19.00
2018-05-11T14:42:23.249Z,19.00
2018-05-11T14:44:52.456Z,19.00
2018-05-11T14:47:20.734Z,19.00
2018-05-11T14:49:49.001Z,19.10
2018-05-11T14:52:17.322Z,19.10
2018-05-11T14:54:44.823Z,19.00
2018-05-11T14:57:12.338Z,18.90
2018-05-11T14:59:39.846Z,18.70
2018-05-11T15:02:07.364Z,18.60
2018-05-11T15:04:34.871Z,18.50
2018-05-11T15:07:02.395Z,18.70
2018-05-11T15:09:29.908Z,18.90
2018-05-11T15:11:58.182Z,19.20
2018-05-11T15:14:25.714Z,19.10
2018-05-11T15:16:53.225Z,19.50
2018-05-11T15:19:20.755Z,19.80
2018-05-11T15:21:49.023Z,20.20
2018-05-11T15:24:17.350Z,20.20
2018-05-11T15:26:44.870Z,20.10
2018-05-11T15:29:13.149Z,20.10
2018-05-11T15:31:41.444Z,20.10
2018-05-11T15:34:08.935Z,20.00
2018-05-11T15:36:36.466Z,20.00
2018-05-11T15:39:03.966Z,20.10
2018-05-11T15:41:31.479Z,20.10
2018-05-11T15:43:59.002Z,19.90
2018-05-11T15:46:26.534Z,19.40
2018-05-11T15:48:54.031Z,19.30
2018-05-11T15:51:21.538Z,19.30
2018-05-11T15:53:49.076Z,19.30
2018-05-11T15:56:16.584Z,19.40
2018-05-11T15:58:44.118Z,19.30
2018-05-11T16:01:11.630Z,19.20
2018-05-11T16:03:39.964Z,19.50
2018-05-11T16:06:07.459Z,19.40
2018-05-11T16:08:34.967Z,19.40
2018-05-11T16:11:02.485Z,19.30
2018-05-11T16:13:30.761Z,19.00
2018-05-11T16:15:59.062Z,18.90
2018-05-11T16:18:26.570Z,18.80
2018-05-11T16:20:54.106Z,18.80
2018-05-11T16:23:21.700Z,18.90
2018-05-11T16:25:49.234Z,18.90
2018-05-11T16:28:16.781Z,18.80
2018-05-11T16:30:45.008Z,18.60
2018-05-11T16:33:12.536Z,18.50
2018-05-11T16:35:40.102Z,18.40
2018-05-11T16:38:07.646Z,18.40
2018-05-11T16:40:35.186Z,18.30
2018-05-11T16:43:03.450Z,18.20
2018-05-11T16:45:31.719Z,18.20
2018-05-11T16:47:59.979Z,18.30
2018-05-11T16:50:28.698Z,18.40
2018-05-11T16:52:56.207Z,18.30
2018-05-11T16:55:23.724Z,18.50
2018-05-11T16:57:51.229Z,18.60
2018-05-11T17:00:18.805Z,18.60
2018-05-11T17:02:46.307Z,18.80
2018-05-11T17:05:13.856Z,19.00
2018-05-11T17:07:42.114Z,19.00
2018-05-11T17:10:10.374Z,19.00
2018-05-11T17:12:37.905Z,18.90
2018-05-11T17:15:05.408Z,19.00
2018-05-11T17:17:32.931Z,18.80
2018-05-11T17:20:00.422Z,18.80
2018-05-11T17:22:28.003Z,18.70
2018-05-11T17:24:55.528Z,18.60
2018-05-11T17:27:23.033Z,18.40
2018-05-11T17:29:50.652Z,18.30
2018-05-11T17:32:18.845Z,18.10
2018-05-11T17:34:46.360Z,18.10
2018-05-11T17:37:13.861Z,18.20
2018-05-11T17:39:41.374Z,18.20
2018-05-11T17:42:08.867Z,18.10
2018-05-11T17:44:36.381Z,18.00
2018-05-11T17:47:03.873Z,17.80
2018-05-11T17:49:31.382Z,17.70
2018-05-11T17:51:58.890Z,17.60
2018-05-11T17:54:26.396Z,17.50
2018-05-11T17:56:53.942Z,17.40
2018-05-11T17:59:22.205Z,17.30
2018-05-11T18:01:49.730Z,17.20
2018-05-11T18:04:17.240Z,17.20
2018-05-11T18:06:45.610Z,17.20
2018-05-11T18:09:13.056Z,17.10
2018-05-11T18:11:40.577Z,17.10
2018-05-11T18:14:08.913Z,17.00
2018-05-11T18:16:36.426Z,16.90
2018-05-11T18:19:03.958Z,16.90
2018-05-11T18:21:31.457Z,16.80
2018-05-11T18:23:58.992Z,16.80
2018-05-11T18:26:26.502Z,16.70
2018-05-11T18:28:54.026Z,16.60
2018-05-11T18:31:21.527Z,16.40
2018-05-11T18:33:49.087Z,16.40
2018-05-11T18:36:16.647Z,16.30
2018-05-11T18:38:44.929Z,16.20
2018-05-11T18:41:13.215Z,16.10
2018-05-11T18:43:41.710Z,16.10
2018-05-11T18:46:09.238Z,16.00
2018-05-11T18:48:36.754Z,16.00
2018-05-11T18:51:04.319Z,15.90
2018-05-11T18:53:32.825Z,15.80
2018-05-11T18:56:00.114Z,15.70
2018-05-11T18:58:28.382Z,15.70
2018-05-11T19:00:56.670Z,15.60
2018-05-11T19:03:24.964Z,15.60
2018-05-11T19:05:52.469Z,15.50
2018-05-11T19:08:19.994Z,15.50
2018-05-11T19:10:47.501Z,15.50
2018-05-11T19:13:15.028Z,15.40
2018-05-11T19:15:42.539Z,15.40
2018-05-11T19:18:10.803Z,15.40
2018-05-11T19:20:38.331Z,15.30
2018-05-11T19:23:05.854Z,15.30
2018-05-11T19:25:33.416Z,15.30
2018-05-11T19:28:00.926Z,15.30
2018-05-11T19:30:28.442Z,15.20
2018-05-11T19:32:55.953Z,15.10
2018-05-11T19:35:23.454Z,15.10
2018-05-11T19:37:51.007Z,15.10
2018-05-11T19:40:18.526Z,15.10
2018-05-11T19:42:46.124Z,15.10
2018-05-11T19:45:14.390Z,15.10
2018-05-11T19:47:42.729Z,15.00
2018-05-11T19:50:10.241Z,15.00
2018-05-11T19:52:37.752Z,15.00
2018-05-11T19:55:05.281Z,15.00
2018-05-11T19:57:32.795Z,14.90
2018-05-11T20:00:02.414Z,14.90
2018-05-11T20:02:30.161Z,14.80
2018-05-11T20:04:57.770Z,14.90
2018-05-11T20:07:25.270Z,14.80
2018-05-11T20:09:52.778Z,14.80
2018-05-11T20:12:21.216Z,14.70
2018-05-11T20:14:48.727Z,14.70
2018-05-11T20:17:16.266Z,14.70
2018-05-11T20:19:44.529Z,14.60
2018-05-11T20:22:12.861Z,14.60
2018-05-11T20:24:40.364Z,14.50
2018-05-11T20:27:07.918Z,14.50
2018-05-11T20:29:35.428Z,14.50
2018-05-11T20:32:02.918Z,14.50
2018-05-11T20:34:30.450Z,14.40
2018-05-11T20:36:57.958Z,14.40
2018-05-11T20:39:25.492Z,14.40
2018-05-11T20:41:52.988Z,14.40
2018-05-11T20:44:20.512Z,14.30
2018-05-11T20:46:48.011Z,14.30
2018-05-11T20:49:16.288Z,14.20
2018-05-11T20:51:44.575Z,14.20
2018-05-11T20:54:12.836Z,14.20
2018-05-11T20:56:40.366Z,14.10
2018-05-11T20:59:07.873Z,14.20
2018-05-11T21:01:35.410Z,14.10
2018-05-11T21:04:02.923Z,14.10
2018-05-11T21:06:30.442Z,14.10
2018-05-11T21:08:58.733Z,14.10
2018-05-11T21:11:26.230Z,14.00
2018-05-11T21:13:53.785Z,14.10
2018-05-11T21:16:21.305Z,14.00
2018-05-11T21:18:49.592Z,14.00
2018-05-11T21:21:17.853Z,13.90
2018-05-11T21:23:46.123Z,14.00
2018-05-11T21:26:14.431Z,13.90
2018-05-11T21:28:41.930Z,13.80
2018-05-11T21:31:09.445Z,13.90
2018-05-11T21:33:36.996Z,13.80
2018-05-11T21:36:04.478Z,13.80
2018-05-11T21:38:31.983Z,13.90
2018-05-11T21:41:00.403Z,13.80
2018-05-11T21:43:27.821Z,13.70
2018-05-11T21:45:55.327Z,13.80
2018-05-11T21:48:22.871Z,13.80
2018-05-11T21:50:50.371Z,13.70
2018-05-11T21:53:17.895Z,13.80
2018-05-11T21:55:45.404Z,13.70
2018-05-11T21:58:12.926Z,13.80
2018-05-11T22:00:40.427Z,13.70
2018-05-11T22:03:07.943Z,13.70
2018-05-11T22:05:35.450Z,13.70
2018-05-11T22:08:02.969Z,13.70
2018-05-11T22:10:30.499Z,13.60
2018-05-11T22:12:58.757Z,13.60
2018-05-11T22:15:26.284Z,13.50
2018-05-11T22:17:53.794Z,13.60
2018-05-11T22:20:22.091Z,13.50
2018-05-11T22:22:49.600Z,13.50
2018-05-11T22:25:17.231Z,13.50
2018-05-11T22:27:44.737Z,13.50
2018-05-11T22:30:12.270Z,13.50
2018-05-11T22:32:39.779Z,13.50
2018-05-11T22:35:08.041Z,13.40
2018-05-11T22:37:35.571Z,13.30
2018-05-11T22:40:03.066Z,13.40
2018-05-11T22:42:31.344Z,13.40
2018-05-11T22:44:59.605Z,13.40
2018-05-11T22:47:28.002Z,13.30
2018-05-11T22:49:56.265Z,13.30
2018-05-11T22:52:23.783Z,13.20
2018-05-11T22:54:51.506Z,13.20
2018-05-11T22:57:19.795Z,13.10
2018-05-11T22:59:48.112Z,13.00
2018-05-11T23:02:15.606Z,12.90
2018-05-11T23:04:43.124Z,13.00
2018-05-11T23:07:10.622Z,13.00
2018-05-11T23:09:38.208Z,13.00
2018-05-11T23:12:06.469Z,13.10
2018-05-11T23:14:34.740Z,13.10
2018-05-11T23:17:02.245Z,13.00
2018-05-11T23:19:29.750Z,13.10
2018-05-11T23:21:57.258Z,13.10
2018-05-11T23:24:24.749Z,13.00
2018-05-11T23:26:52.273Z,13.00
2018-05-11T23:29:19.762Z,12.90
2018-05-11T23:31:47.274Z,12.90
2018-05-11T23:34:15.542Z,12.90
2018-05-11T23:36:43.811Z,12.90
2018-05-11T23:39:11.325Z,12.80
2018-05-11T23:41:39.596Z,12.80
2018-05-11T23:44:07.117Z,12.70
2018-05-11T23:46:35.382Z,12.90
2018-05-11T23:49:02.891Z,12.80
2018-05-11T23:51:31.157Z,12.90
2018-05-11T23:53:58.654Z,12.80
2018-05-11T23:56:26.198Z,12.90
2018-05-11T23:58:54.453Z,12.80
